sensor_id;sensor_type;location;lat;lon;timestamp;pressure;altitude;pressure_sealevel;temperature;humidity
71666;BME280;59503;53.486;10.196;2022-09-29T00:00:31;100023.50;;;2.85;100.00
71666;BME280;59503;53.486;10.196;2022-09-29T00:02:57;100030.91;;;2.88;100.00
71666;BME280;59503;53.486;10.196;2022-09-29T00:05:22;100032.22;;;2.82;100.00
71666;BME280;59503;53.486;10.196;2022-09-29T00:07:48;100024.81;;;2.79;100.00
71666;BME280;59503;53.486;10.196;2022-09-29T00:10:13;100023.13;;;2.75;100.00
71666;BME280;59503;53.486;10.196;2022-09-29T00:12:39;100028.94;;;2.77;100.00
71666;BME280;59503;53.486;10.196;2022-09-29T00:15:05;100024.25;;;2.74;100.00
71666;BME280;59503;53.486;10.196;2022-09-29T00:17:31;100035.31;;;2.72;100.00
71666;BME280;59503;53.486;10.196;2022-09-29T00:19:56;100030.75;;;2.64;100.00
71666;BME280;59503;53.486;10.196;2022-09-29T00:22:22;100017.22;;;2.61;100.00
71666;BME280;59503;53.486;10.196;2022-09-29T00:24:47;100028.47;;;2.75;100.00
71666;BME280;59503;53.486;10.196;2022-09-29T00:27:14;100030.03;;;2.76;100.00
71666;BME280;59503;53.486;10.196;2022-09-29T00:29:40;100025.78;;;2.75;100.00
71666;BME280;59503;53.486;10.196;2022-09-29T00:32:05;100030.38;;;2.74;100.00
71666;BME280;59503;53.486;10.196;2022-09-29T00:34:31;100029.00;;;2.68;100.00
71666;BME280;59503;53.486;10.196;2022-09-29T00:36:56;100033.56;;;2.68;100.00
71666;BME280;59503;53.486;10.196;2022-09-29T00:39:21;100027.75;;;2.66;100.00
71666;BME280;59503;53.486;10.196;2022-09-29T00:41:47;100038.19;;;2.67;100.00
71666;BME280;59503;53.486;10.196;2022-09-29T00:46:50;100034.09;;;2.61;100.00
71666;BME280;59503;53.486;10.196;2022-09-29T00:52:07;100032.88;;;2.59;100.00
71666;BME280;59503;53.486;10.196;2022-09-29T00:54:45;100028.91;;;2.56;100.00
71666;BME280;59503;53.486;10.196;2022-09-29T00:57:15;100021.06;;;2.51;100.00
71666;BME280;59503;53.486;10.196;2022-09-29T00:59:50;100030.56;;;2.48;100.00
71666;BME280;59503;53.486;10.196;2022-09-29T01:02:18;100026.81;;;2.41;100.00
71666;BME280;59503;53.486;10.196;2022-09-29T01:04:45;100031.06;;;2.42;100.00
71666;BME280;59503;53.486;10.196;2022-09-29T01:07:12;100028.13;;;2.35;100.00
71666;BME280;59503;53.486;10.196;2022-09-29T01:09:40;100033.47;;;2.35;100.00
71666;BME280;59503;53.486;10.196;2022-09-29T01:12:07;100035.50;;;2.38;100.00
71666;BME280;59503;53.486;10.196;2022-09-29T01:14:34;100012.41;;;2.25;100.00
71666;BME280;59503;53.486;10.196;2022-09-29T01:17:01;100028.13;;;2.35;100.00
71666;BME280;59503;53.486;10.196;2022-09-29T01:25:29;100026.50;;;2.63;100.00
71666;BME280;59503;53.486;10.196;2022-09-29T01:31:01;100032.16;;;2.70;100.00
71666;BME280;59503;53.486;10.196;2022-09-29T01:36:25;100029.66;;;2.65;100.00
71666;BME280;59503;53.486;10.196;2022-09-29T01:39:14;100028.72;;;2.61;100.00
71666;BME280;59503;53.486;10.196;2022-09-29T01:41:48;100026.03;;;2.61;100.00
71666;BME280;59503;53.486;10.196;2022-09-29T01:46:50;100032.13;;;2.49;100.00
71666;BME280;59503;53.486;10.196;2022-09-29T01:49:19;100029.31;;;2.46;100.00
71666;BME280;59503;53.486;10.196;2022-09-29T01:51:54;100028.31;;;2.50;100.00
71666;BME280;59503;53.486;10.196;2022-09-29T01:54:25;100019.19;;;2.51;100.00
71666;BME280;59503;53.486;10.196;2022-09-29T01:57:00;100026.75;;;2.49;100.00
71666;BME280;59503;53.486;10.196;2022-09-29T01:59:37;100021.25;;;2.46;100.00
71666;BME280;59503;53.486;10.196;2022-09-29T02:02:13;100025.06;;;2.45;100.00
71666;BME280;59503;53.486;10.196;2022-09-29T02:04:43;100026.16;;;2.44;100.00
71666;BME280;59503;53.486;10.196;2022-09-29T02:07:23;100030.75;;;2.43;100.00
71666;BME280;59503;53.486;10.196;2022-09-29T02:09:55;100036.22;;;2.47;100.00
71666;BME280;59503;53.486;10.196;2022-09-29T02:12:25;100030.44;;;2.45;100.00
71666;BME280;59503;53.486;10.196;2022-09-29T02:14:53;100034.19;;;2.44;100.00
71666;BME280;59503;53.486;10.196;2022-09-29T02:17:25;100031.38;;;2.40;100.00
71666;BME280;59503;53.486;10.196;2022-09-29T02:19:51;100034.56;;;2.34;100.00
71666;BME280;59503;53.486;10.196;2022-09-29T02:22:17;100036.94;;;2.35;100.00
71666;BME280;59503;53.486;10.196;2022-09-29T02:24:43;100033.00;;;2.33;100.00
71666;BME280;59503;53.486;10.196;2022-09-29T02:27:09;100021.88;;;2.22;100.00
71666;BME280;59503;53.486;10.196;2022-09-29T02:29:35;100028.50;;;2.25;100.00
71666;BME280;59503;53.486;10.196;2022-09-29T02:32:03;100022.34;;;2.24;100.00
71666;BME280;59503;53.486;10.196;2022-09-29T02:34:31;100023.47;;;2.23;100.00
71666;BME280;59503;53.486;10.196;2022-09-29T02:37:13;100029.72;;;2.27;100.00
71666;BME280;59503;53.486;10.196;2022-09-29T02:39:57;100016.19;;;2.24;100.00
71666;BME280;59503;53.486;10.196;2022-09-29T02:53:44;100027.81;;;2.57;100.00
71666;BME280;59503;53.486;10.196;2022-09-29T03:01:32;100039.69;;;2.47;100.00
71666;BME280;59503;53.486;10.196;2022-09-29T03:03:57;100043.22;;;2.39;100.00
71666;BME280;59503;53.486;10.196;2022-09-29T03:06:23;100035.47;;;2.46;100.00
71666;BME280;59503;53.486;10.196;2022-09-29T03:08:49;100049.53;;;2.43;100.00
71666;BME280;59503;53.486;10.196;2022-09-29T03:11:14;100043.22;;;2.39;100.00
71666;BME280;59503;53.486;10.196;2022-09-29T03:13:40;100040.13;;;2.29;100.00
71666;BME280;59503;53.486;10.196;2022-09-29T03:16:05;100046.69;;;2.40;100.00
71666;BME280;59503;53.486;10.196;2022-09-29T03:18:31;100050.00;;;2.37;100.00
71666;BME280;59503;53.486;10.196;2022-09-29T03:20:56;100047.22;;;2.33;100.00
71666;BME280;59503;53.486;10.196;2022-09-29T03:23:21;100044.41;;;2.30;100.00
71666;BME280;59503;53.486;10.196;2022-09-29T03:25:47;100049.28;;;2.28;100.00
71666;BME280;59503;53.486;10.196;2022-09-29T03:28:12;100047.69;;;2.27;100.00
71666;BME280;59503;53.486;10.196;2022-09-29T03:30:38;100040.31;;;2.24;100.00
71666;BME280;59503;53.486;10.196;2022-09-29T03:33:03;100050.00;;;2.37;100.00
71666;BME280;59503;53.486;10.196;2022-09-29T03:35:29;100044.22;;;2.55;100.00
71666;BME280;59503;53.486;10.196;2022-09-29T03:37:57;100039.00;;;2.59;100.00
71666;BME280;59503;53.486;10.196;2022-09-29T03:40:23;100042.88;;;2.70;100.00
71666;BME280;59503;53.486;10.196;2022-09-29T03:42:48;100050.59;;;2.72;100.00
71666;BME280;59503;53.486;10.196;2022-09-29T03:45:14;100050.75;;;2.75;100.00
71666;BME280;59503;53.486;10.196;2022-09-29T03:47:39;100037.38;;;2.67;100.00
71666;BME280;59503;53.486;10.196;2022-09-29T03:50:05;100047.19;;;2.63;100.00
71666;BME280;59503;53.486;10.196;2022-09-29T03:52:30;100056.06;;;2.54;100.00
71666;BME280;59503;53.486;10.196;2022-09-29T03:54:55;100051.41;;;2.43;100.00
71666;BME280;59503;53.486;10.196;2022-09-29T03:57:21;100048.78;;;2.34;100.00
71666;BME280;59503;53.486;10.196;2022-09-29T03:59:46;100050.19;;;2.32;100.00
71666;BME280;59503;53.486;10.196;2022-09-29T04:02:12;100049.94;;;2.25;100.00
71666;BME280;59503;53.486;10.196;2022-09-29T04:04:38;100057.50;;;2.23;100.00
71666;BME280;59503;53.486;10.196;2022-09-29T04:07:03;100058.16;;;2.20;100.00
71666;BME280;59503;53.486;10.196;2022-09-29T04:09:29;100060.38;;;2.18;100.00
71666;BME280;59503;53.486;10.196;2022-09-29T04:11:55;100067.13;;;2.24;100.00
71666;BME280;59503;53.486;10.196;2022-09-29T04:14:20;100065.56;;;2.23;100.00
71666;BME280;59503;53.486;10.196;2022-09-29T04:16:46;100063.06;;;2.18;100.00
71666;BME280;59503;53.486;10.196;2022-09-29T04:19:11;100066.81;;;2.17;100.00
71666;BME280;59503;53.486;10.196;2022-09-29T04:21:36;100067.13;;;2.24;100.00
71666;BME280;59503;53.486;10.196;2022-09-29T04:24:02;100062.09;;;2.22;100.00
71666;BME280;59503;53.486;10.196;2022-09-29T04:26:27;100079.84;;;2.35;100.00
71666;BME280;59503;53.486;10.196;2022-09-29T04:28:54;100064.59;;;2.27;100.00
71666;BME280;59503;53.486;10.196;2022-09-29T04:31:20;100071.81;;;2.27;100.00
71666;BME280;59503;53.486;10.196;2022-09-29T04:33:45;100086.22;;;2.22;100.00
71666;BME280;59503;53.486;10.196;2022-09-29T04:36:10;100087.03;;;2.14;100.00
71666;BME280;59503;53.486;10.196;2022-09-29T04:38:36;100079.97;;;2.10;100.00
71666;BME280;59503;53.486;10.196;2022-09-29T04:41:02;100084.53;;;2.09;100.00
71666;BME280;59503;53.486;10.196;2022-09-29T04:43:27;100082.81;;;2.05;100.00
71666;BME280;59503;53.486;10.196;2022-09-29T04:46:00;100077.75;;;2.03;100.00
71666;BME280;59503;53.486;10.196;2022-09-29T04:48:26;100079.50;;;2.08;100.00
71666;BME280;59503;53.486;10.196;2022-09-29T04:50:51;100084.72;;;2.04;100.00
71666;BME280;59503;53.486;10.196;2022-09-29T04:53:19;100084.56;;;2.01;100.00
71666;BME280;59503;53.486;10.196;2022-09-29T04:55:44;100088.03;;;2.01;100.00
71666;BME280;59503;53.486;10.196;2022-09-29T04:58:10;100085.97;;;1.98;100.00
71666;BME280;59503;53.486;10.196;2022-09-29T05:00:35;100089.31;;;1.95;100.00
71666;BME280;59503;53.486;10.196;2022-09-29T05:03:01;100093.84;;;2.03;100.00
71666;BME280;59503;53.486;10.196;2022-09-29T05:05:27;100085.03;;;2.03;100.00
71666;BME280;59503;53.486;10.196;2022-09-29T05:07:53;100091.63;;;2.05;100.00
71666;BME280;59503;53.486;10.196;2022-09-29T05:10:18;100094.00;;;2.07;100.00
71666;BME280;59503;53.486;10.196;2022-09-29T05:12:49;100095.59;;;2.08;100.00
71666;BME280;59503;53.486;10.196;2022-09-29T05:15:17;100091.78;;;2.09;100.00
71666;BME280;59503;53.486;10.196;2022-09-29T05:17:42;100097.44;;;2.16;100.00
71666;BME280;59503;53.486;10.196;2022-09-29T05:20:09;100112.22;;;2.22;100.00
71666;BME280;59503;53.486;10.196;2022-09-29T05:22:34;100105.75;;;2.31;100.00
71666;BME280;59503;53.486;10.196;2022-09-29T05:24:59;100100.53;;;2.35;100.00
71666;BME280;59503;53.486;10.196;2022-09-29T05:27:25;100098.28;;;2.37;100.00
71666;BME280;59503;53.486;10.196;2022-09-29T05:29:51;100106.28;;;2.45;100.00
71666;BME280;59503;53.486;10.196;2022-09-29T05:32:16;100101.72;;;2.46;100.00
71666;BME280;59503;53.486;10.196;2022-09-29T05:34:41;100108.03;;;2.50;100.00
71666;BME280;59503;53.486;10.196;2022-09-29T05:37:07;100101.34;;;2.56;100.00
71666;BME280;59503;53.486;10.196;2022-09-29T05:39:33;100096.00;;;2.56;100.00
71666;BME280;59503;53.486;10.196;2022-09-29T05:42:00;100103.34;;;2.68;100.00
71666;BME280;59503;53.486;10.196;2022-09-29T05:44:26;100102.56;;;2.67;100.00
71666;BME280;59503;53.486;10.196;2022-09-29T05:46:52;100107.75;;;2.72;100.00
71666;BME280;59503;53.486;10.196;2022-09-29T05:49:17;100109.97;;;2.91;100.00
71666;BME280;59503;53.486;10.196;2022-09-29T05:51:43;100099.84;;;2.96;100.00
71666;BME280;59503;53.486;10.196;2022-09-29T05:54:09;100113.19;;;3.05;100.00
71666;BME280;59503;53.486;10.196;2022-09-29T05:56:34;100116.03;;;3.08;100.00
71666;BME280;59503;53.486;10.196;2022-09-29T05:59:00;100112.16;;;3.18;100.00
71666;BME280;59503;53.486;10.196;2022-09-29T06:01:26;100106.72;;;3.26;100.00
71666;BME280;59503;53.486;10.196;2022-09-29T06:03:55;100110.13;;;3.35;100.00
71666;BME280;59503;53.486;10.196;2022-09-29T06:06:23;100104.69;;;3.44;100.00
71666;BME280;59503;53.486;10.196;2022-09-29T06:08:50;100106.97;;;3.54;100.00
71666;BME280;59503;53.486;10.196;2022-09-29T06:11:26;100110.78;;;3.65;100.00
71666;BME280;59503;53.486;10.196;2022-09-29T06:13:53;100108.28;;;3.80;100.00
71666;BME280;59503;53.486;10.196;2022-09-29T06:16:21;100104.84;;;3.92;100.00
71666;BME280;59503;53.486;10.196;2022-09-29T06:18:47;100103.59;;;4.02;100.00
71666;BME280;59503;53.486;10.196;2022-09-29T06:21:16;100109.59;;;4.19;100.00
71666;BME280;59503;53.486;10.196;2022-09-29T06:23:42;100111.63;;;4.34;100.00
71666;BME280;59503;53.486;10.196;2022-09-29T06:26:11;100107.69;;;4.44;100.00
71666;BME280;59503;53.486;10.196;2022-09-29T06:28:37;100112.84;;;4.61;100.00
71666;BME280;59503;53.486;10.196;2022-09-29T06:31:10;100117.66;;;4.79;100.00
71666;BME280;59503;53.486;10.196;2022-09-29T06:33:36;100116.41;;;5.01;100.00
71666;BME280;59503;53.486;10.196;2022-09-29T06:36:06;100123.53;;;5.21;100.00
71666;BME280;59503;53.486;10.196;2022-09-29T06:38:51;100127.09;;;5.37;100.00
71666;BME280;59503;53.486;10.196;2022-09-29T06:41:16;100116.09;;;5.42;100.00
71666;BME280;59503;53.486;10.196;2022-09-29T06:43:41;100114.47;;;5.53;100.00
71666;BME280;59503;53.486;10.196;2022-09-29T06:46:07;100124.00;;;5.63;100.00
71666;BME280;59503;53.486;10.196;2022-09-29T06:48:32;100122.59;;;5.69;100.00
71666;BME280;59503;53.486;10.196;2022-09-29T06:50:58;100122.44;;;5.77;100.00
71666;BME280;59503;53.486;10.196;2022-09-29T06:53:25;100134.56;;;5.83;100.00
71666;BME280;59503;53.486;10.196;2022-09-29T06:55:52;100127.72;;;5.86;100.00
71666;BME280;59503;53.486;10.196;2022-09-29T06:58:17;100123.47;;;6.00;100.00
71666;BME280;59503;53.486;10.196;2022-09-29T07:00:43;100124.56;;;6.11;100.00
71666;BME280;59503;53.486;10.196;2022-09-29T07:03:08;100127.69;;;6.29;100.00
71666;BME280;59503;53.486;10.196;2022-09-29T07:05:34;100125.97;;;6.37;100.00
71666;BME280;59503;53.486;10.196;2022-09-29T07:07:59;100113.06;;;6.46;100.00
71666;BME280;59503;53.486;10.196;2022-09-29T07:10:25;100132.84;;;6.65;100.00
71666;BME280;59503;53.486;10.196;2022-09-29T07:12:51;100128.09;;;6.78;100.00
71666;BME280;59503;53.486;10.196;2022-09-29T07:15:16;100128.59;;;6.99;100.00
71666;BME280;59503;53.486;10.196;2022-09-29T07:17:42;100143.97;;;7.14;100.00
71666;BME280;59503;53.486;10.196;2022-09-29T07:20:07;100138.31;;;7.19;100.00
71666;BME280;59503;53.486;10.196;2022-09-29T07:22:33;100142.47;;;7.16;100.00
71666;BME280;59503;53.486;10.196;2022-09-29T07:24:58;100142.34;;;7.28;100.00
71666;BME280;59503;53.486;10.196;2022-09-29T07:27:23;100140.72;;;7.43;100.00
71666;BME280;59503;53.486;10.196;2022-09-29T07:29:50;100141.88;;;7.61;100.00
71666;BME280;59503;53.486;10.196;2022-09-29T07:32:16;100141.31;;;7.71;100.00
71666;BME280;59503;53.486;10.196;2022-09-29T07:34:42;100140.84;;;8.07;100.00
71666;BME280;59503;53.486;10.196;2022-09-29T07:37:08;100134.53;;;8.22;100.00
71666;BME280;59503;53.486;10.196;2022-09-29T07:39:34;100133.41;;;8.46;100.00
71666;BME280;59503;53.486;10.196;2022-09-29T07:42:01;100144.03;;;8.80;100.00
71666;BME280;59503;53.486;10.196;2022-09-29T07:44:28;100144.75;;;8.77;100.00
71666;BME280;59503;53.486;10.196;2022-09-29T07:46:56;100149.72;;;8.98;100.00
71666;BME280;59503;53.486;10.196;2022-09-29T07:49:21;100150.28;;;9.11;100.00
71666;BME280;59503;53.486;10.196;2022-09-29T07:51:46;100152.41;;;9.24;100.00
71666;BME280;59503;53.486;10.196;2022-09-29T07:54:12;100155.19;;;9.28;100.00
71666;BME280;59503;53.486;10.196;2022-09-29T07:56:37;100156.44;;;9.34;100.00
71666;BME280;59503;53.486;10.196;2022-09-29T07:59:03;100152.44;;;9.54;100.00
71666;BME280;59503;53.486;10.196;2022-09-29T08:01:29;100151.97;;;9.81;100.00
71666;BME280;59503;53.486;10.196;2022-09-29T08:03:56;100147.88;;;9.98;100.00
71666;BME280;59503;53.486;10.196;2022-09-29T08:06:23;100145.06;;;10.21;100.00
71666;BME280;59503;53.486;10.196;2022-09-29T08:08:49;100153.13;;;10.54;100.00
71666;BME280;59503;53.486;10.196;2022-09-29T08:11:18;100152.28;;;10.46;100.00
71666;BME280;59503;53.486;10.196;2022-09-29T08:13:45;100160.78;;;10.41;100.00
71666;BME280;59503;53.486;10.196;2022-09-29T08:16:12;100156.47;;;10.37;100.00
71666;BME280;59503;53.486;10.196;2022-09-29T08:18:38;100158.69;;;10.24;100.00
71666;BME280;59503;53.486;10.196;2022-09-29T08:21:04;100155.06;;;10.10;100.00
71666;BME280;59503;53.486;10.196;2022-09-29T08:23:33;100175.28;;;10.16;100.00
71666;BME280;59503;53.486;10.196;2022-09-29T08:26:00;100165.59;;;10.18;100.00
71666;BME280;59503;53.486;10.196;2022-09-29T08:28:27;100161.66;;;10.12;100.00
71666;BME280;59503;53.486;10.196;2022-09-29T08:30:52;100162.13;;;10.18;100.00
71666;BME280;59503;53.486;10.196;2022-09-29T08:33:18;100162.88;;;10.18;100.00
71666;BME280;59503;53.486;10.196;2022-09-29T08:35:43;100169.06;;;10.15;100.00
71666;BME280;59503;53.486;10.196;2022-09-29T08:38:08;100176.88;;;10.20;100.00
71666;BME280;59503;53.486;10.196;2022-09-29T08:40:34;100180.34;;;10.17;100.00
71666;BME280;59503;53.486;10.196;2022-09-29T08:43:38;100173.00;;;10.21;100.00
71666;BME280;59503;53.486;10.196;2022-09-29T08:49:25;100183.28;;;10.38;100.00
71666;BME280;59503;53.486;10.196;2022-09-29T08:51:55;100190.34;;;10.46;100.00
71666;BME280;59503;53.486;10.196;2022-09-29T08:54:39;100186.13;;;10.52;100.00
71666;BME280;59503;53.486;10.196;2022-09-29T08:57:07;100183.88;;;10.61;100.00
71666;BME280;59503;53.486;10.196;2022-09-29T08:59:40;100194.47;;;10.73;100.00
71666;BME280;59503;53.486;10.196;2022-09-29T09:05:14;100195.03;;;10.96;100.00
71666;BME280;59503;53.486;10.196;2022-09-29T09:21:42;100203.78;;;11.95;93.68
71666;BME280;59503;53.486;10.196;2022-09-29T09:24:44;100198.78;;;12.11;94.89
71666;BME280;59503;53.486;10.196;2022-09-29T09:27:15;100210.13;;;12.27;95.07
71666;BME280;59503;53.486;10.196;2022-09-29T09:29:46;100207.78;;;12.32;89.58
71666;BME280;59503;53.486;10.196;2022-09-29T09:32:17;100206.66;;;12.55;92.28
71666;BME280;59503;53.486;10.196;2022-09-29T09:34:58;100196.16;;;12.67;89.28
71666;BME280;59503;53.486;10.196;2022-09-29T09:37:33;100210.59;;;12.71;88.46
71666;BME280;59503;53.486;10.196;2022-09-29T09:42:38;100211.38;;;13.17;87.34
71666;BME280;59503;53.486;10.196;2022-09-29T09:45:09;100198.91;;;13.20;86.75
71666;BME280;59503;53.486;10.196;2022-09-29T09:47:50;100198.13;;;13.09;84.40
71666;BME280;59503;53.486;10.196;2022-09-29T09:50:19;100203.56;;;13.30;83.92
71666;BME280;59503;53.486;10.196;2022-09-29T09:55:43;100202.28;;;13.69;82.36
71666;BME280;59503;53.486;10.196;2022-09-29T09:58:32;100204.19;;;13.80;80.94
71666;BME280;59503;53.486;10.196;2022-09-29T10:01:04;100205.81;;;13.70;82.88
71666;BME280;59503;53.486;10.196;2022-09-29T10:03:31;100211.25;;;13.81;83.10
71666;BME280;59503;53.486;10.196;2022-09-29T10:05:57;100214.81;;;13.53;80.23
71666;BME280;59503;53.486;10.196;2022-09-29T10:08:24;100214.44;;;13.47;81.54
71666;BME280;59503;53.486;10.196;2022-09-29T10:10:51;100223.03;;;13.49;81.15
71666;BME280;59503;53.486;10.196;2022-09-29T10:13:16;100207.84;;;13.34;83.02
71666;BME280;59503;53.486;10.196;2022-09-29T10:18:20;100222.22;;;13.63;84.51
71666;BME280;59503;53.486;10.196;2022-09-29T10:20:47;100214.78;;;13.70;83.03
71666;BME280;59503;53.486;10.196;2022-09-29T10:23:25;100213.16;;;13.84;80.85
71666;BME280;59503;53.486;10.196;2022-09-29T10:26:17;100228.06;;;13.61;80.21
71666;BME280;59503;53.486;10.196;2022-09-29T10:31:23;100215.94;;;13.73;81.18
71666;BME280;59503;53.486;10.196;2022-09-29T10:33:54;100218.69;;;13.69;82.14
71666;BME280;59503;53.486;10.196;2022-09-29T10:36:21;100219.47;;;13.59;81.81
71666;BME280;59503;53.486;10.196;2022-09-29T10:38:50;100216.75;;;13.63;81.88
71666;BME280;59503;53.486;10.196;2022-09-29T10:41:16;100225.34;;;13.58;82.52
71666;BME280;59503;53.486;10.196;2022-09-29T10:43:45;100226.53;;;13.57;81.85
71666;BME280;59503;53.486;10.196;2022-09-29T10:46:37;100233.53;;;13.54;81.77
71666;BME280;59503;53.486;10.196;2022-09-29T10:49:15;100234.34;;;13.51;79.35
71666;BME280;59503;53.486;10.196;2022-09-29T10:52:04;100240.59;;;13.34;80.18
71666;BME280;59503;53.486;10.196;2022-09-29T10:54:36;100235.53;;;13.43;81.50
71666;BME280;59503;53.486;10.196;2022-09-29T10:57:14;100232.78;;;13.54;82.52
71666;BME280;59503;53.486;10.196;2022-09-29T10:59:50;100239.41;;;13.53;79.52
71666;BME280;59503;53.486;10.196;2022-09-29T11:02:33;100231.94;;;13.67;80.67
71666;BME280;59503;53.486;10.196;2022-09-29T11:05:03;100234.66;;;13.78;80.74
71666;BME280;59503;53.486;10.196;2022-09-29T11:07:30;100235.03;;;13.84;78.52
71666;BME280;59503;53.486;10.196;2022-09-29T11:09:57;100252.94;;;13.92;78.57
71666;BME280;59503;53.486;10.196;2022-09-29T11:14:54;100243.13;;;14.05;76.74
71666;BME280;59503;53.486;10.196;2022-09-29T11:19:56;100239.72;;;13.80;78.52
71666;BME280;59503;53.486;10.196;2022-09-29T11:28:05;100257.28;;;13.86;75.96
71666;BME280;59503;53.486;10.196;2022-09-29T11:31:29;100259.28;;;13.60;78.25
71666;BME280;59503;53.486;10.196;2022-09-29T11:36:40;100261.28;;;13.18;80.05
71666;BME280;59503;53.486;10.196;2022-09-29T11:42:02;100260.47;;;12.89;82.63
71666;BME280;59503;53.486;10.196;2022-09-29T11:47:21;100276.44;;;12.87;83.70
71666;BME280;59503;53.486;10.196;2022-09-29T11:53:28;100290.06;;;12.80;83.19
71666;BME280;59503;53.486;10.196;2022-09-29T11:56:45;100283.03;;;12.72;82.72
71666;BME280;59503;53.486;10.196;2022-09-29T12:04:37;100295.06;;;12.57;84.55
71666;BME280;59503;53.486;10.196;2022-09-29T12:07:14;100292.72;;;12.52;82.71
71666;BME280;59503;53.486;10.196;2022-09-29T12:12:49;100292.75;;;12.59;83.24
71666;BME280;59503;53.486;10.196;2022-09-29T12:15:51;100298.97;;;12.56;84.99
71666;BME280;59503;53.486;10.196;2022-09-29T12:18:43;100300.13;;;12.55;85.32
71666;BME280;59503;53.486;10.196;2022-09-29T12:21:11;100295.84;;;12.50;85.13
71666;BME280;59503;53.486;10.196;2022-09-29T12:23:39;100289.59;;;12.43;85.55
71666;BME280;59503;53.486;10.196;2022-09-29T12:26:11;100300.50;;;12.43;85.65
71666;BME280;59503;53.486;10.196;2022-09-29T12:28:49;100303.63;;;12.52;86.01
71666;BME280;59503;53.486;10.196;2022-09-29T12:31:26;100296.19;;;12.42;85.50
71666;BME280;59503;53.486;10.196;2022-09-29T12:33:58;100294.16;;;12.21;86.03
71666;BME280;59503;53.486;10.196;2022-09-29T12:36:43;100300.88;;;12.38;87.86
71666;BME280;59503;53.486;10.196;2022-09-29T12:41:51;100300.50;;;12.43;89.40
71666;BME280;59503;53.486;10.196;2022-09-29T12:44:38;100302.84;;;12.41;87.28
71666;BME280;59503;53.486;10.196;2022-09-29T12:47:18;100304.34;;;12.35;87.11
71666;BME280;59503;53.486;10.196;2022-09-29T12:52:32;100302.00;;;12.30;87.83
71666;BME280;59503;53.486;10.196;2022-09-29T12:55:06;100309.78;;;12.24;88.62
71666;BME280;59503;53.486;10.196;2022-09-29T12:57:41;100305.09;;;12.25;88.27
71666;BME280;59503;53.486;10.196;2022-09-29T13:00:12;100303.91;;;12.19;88.57
71666;BME280;59503;53.486;10.196;2022-09-29T13:03:33;100309.75;;;12.17;89.45
71666;BME280;59503;53.486;10.196;2022-09-29T13:08:56;100310.50;;;12.14;89.94
71666;BME280;59503;53.486;10.196;2022-09-29T13:20:19;100312.09;;;12.19;88.82
71666;BME280;59503;53.486;10.196;2022-09-29T13:25:50;100320.66;;;12.17;88.26
71666;BME280;59503;53.486;10.196;2022-09-29T13:28:32;100319.09;;;12.20;89.30
71666;BME280;59503;53.486;10.196;2022-09-29T13:31:03;100313.97;;;12.11;89.93
71666;BME280;59503;53.486;10.196;2022-09-29T13:33:30;100318.69;;;12.14;88.72
71666;BME280;59503;53.486;10.196;2022-09-29T13:35:56;100318.28;;;12.12;90.60
71666;BME280;59503;53.486;10.196;2022-09-29T13:38:24;100324.91;;;12.18;87.79
71666;BME280;59503;53.486;10.196;2022-09-29T13:41:13;100331.19;;;12.26;88.25
71666;BME280;59503;53.486;10.196;2022-09-29T13:46:35;100321.06;;;12.30;86.33
71666;BME280;59503;53.486;10.196;2022-09-29T13:57:03;100327.66;;;12.18;88.42
71666;BME280;59503;53.486;10.196;2022-09-29T13:59:30;100321.31;;;11.97;88.16
71666;BME280;59503;53.486;10.196;2022-09-29T14:01:56;100327.53;;;11.94;90.08
71666;BME280;59503;53.486;10.196;2022-09-29T14:04:42;100325.16;;;11.89;91.92
71666;BME280;59503;53.486;10.196;2022-09-29T14:07:15;100332.50;;;11.81;92.01
71666;BME280;59503;53.486;10.196;2022-09-29T14:10:03;100328.91;;;11.67;92.79
71666;BME280;59503;53.486;10.196;2022-09-29T14:12:33;100326.09;;;11.60;91.88
71666;BME280;59503;53.486;10.196;2022-09-29T14:14:59;100326.88;;;11.60;92.28
71666;BME280;59503;53.486;10.196;2022-09-29T14:17:32;100326.06;;;11.56;92.93
71666;BME280;59503;53.486;10.196;2022-09-29T14:20:10;100330.22;;;11.40;92.84
71666;BME280;59503;53.486;10.196;2022-09-29T14:22:59;100323.91;;;11.28;94.54
71666;BME280;59503;53.486;10.196;2022-09-29T14:25:46;100334.09;;;11.35;94.67
71666;BME280;59503;53.486;10.196;2022-09-29T14:28:16;100333.22;;;11.27;95.29
71666;BME280;59503;53.486;10.196;2022-09-29T14:30:47;100331.78;;;11.37;95.45
71666;BME280;59503;53.486;10.196;2022-09-29T14:33:29;100326.56;;;11.21;96.67
71666;BME280;59503;53.486;10.196;2022-09-29T14:38:32;100334.41;;;11.26;97.38
71666;BME280;59503;53.486;10.196;2022-09-29T14:41:22;100334.34;;;11.23;97.17
71666;BME280;59503;53.486;10.196;2022-09-29T15:00:21;100356.25;;;10.93;99.23
71666;BME280;59503;53.486;10.196;2022-09-29T15:02:51;100351.50;;;10.87;100.00
71666;BME280;59503;53.486;10.196;2022-09-29T15:05:31;100347.41;;;10.70;100.00
71666;BME280;59503;53.486;10.196;2022-09-29T15:07:58;100355.63;;;10.74;100.00
71666;BME280;59503;53.486;10.196;2022-09-29T15:10:29;100355.19;;;10.68;100.00
71666;BME280;59503;53.486;10.196;2022-09-29T15:15:42;100356.53;;;10.52;100.00
71666;BME280;59503;53.486;10.196;2022-09-29T15:18:40;100350.66;;;10.46;100.00
71666;BME280;59503;53.486;10.196;2022-09-29T15:21:35;100360.69;;;10.42;100.00
71666;BME280;59503;53.486;10.196;2022-09-29T15:24:19;100359.47;;;10.36;100.00